Terminal Aerodrome Forecast
Issued by NWS Rapid City, SD

Home | Current Version | Previous Version | Text Only | Print | Product List | Glossary On
Versions: 1 2 3 4 5 6 7 8 9 10 11 12 13 14 15 16 17
580
FTUS43 KUNR 282119 AAA
TAFRAP
TAF AMD
KRAP 282119Z 2821/2918 33015G25KT P6SM VCTS BKN070CB
      TEMPO 2822/2823 35030G45KT 3SM TSRA BKN040CB
     FM290200 32008KT P6SM SCT100=

USA.gov is the U.S. government's official web portal to all federal, state and local government web resources and services.